sensor_id;sensor_type;location;lat;lon;timestamp;P1;durP1;ratioP1;P2;durP2;ratioP2
18804;SDS011;9530;48.930;9.526;2022-10-16T00:00:29;1.90;;;1.40;;
18804;SDS011;9530;48.930;9.526;2022-10-16T00:02:56;4.67;;;1.57;;
18804;SDS011;9530;48.930;9.526;2022-10-16T00:05:24;4.43;;;1.40;;
18804;SDS011;9530;48.930;9.526;2022-10-16T00:07:51;1.67;;;1.20;;
18804;SDS011;9530;48.930;9.526;2022-10-16T00:10:17;3.10;;;1.07;;
18804;SDS011;9530;48.930;9.526;2022-10-16T00:12:44;3.67;;;1.20;;
18804;SDS011;9530;48.930;9.526;2022-10-16T00:15:11;1.80;;;1.20;;
18804;SDS011;9530;48.930;9.526;2022-10-16T00:17:38;11.03;;;1.40;;
18804;SDS011;9530;48.930;9.526;2022-10-16T00:20:05;3.30;;;1.50;;
18804;SDS011;9530;48.930;9.526;2022-10-16T00:22:33;4.47;;;1.23;;
18804;SDS011;9530;48.930;9.526;2022-10-16T00:25:00;3.10;;;1.30;;
18804;SDS011;9530;48.930;9.526;2022-10-16T00:27:27;3.33;;;1.27;;
18804;SDS011;9530;48.930;9.526;2022-10-16T00:29:53;5.27;;;1.40;;
18804;SDS011;9530;48.930;9.526;2022-10-16T00:32:20;3.17;;;1.37;;
18804;SDS011;9530;48.930;9.526;2022-10-16T00:34:47;7.03;;;1.50;;
18804;SDS011;9530;48.930;9.526;2022-10-16T00:37:14;6.83;;;1.20;;
18804;SDS011;9530;48.930;9.526;2022-10-16T00:39:42;2.33;;;1.30;;
18804;SDS011;9530;48.930;9.526;2022-10-16T00:42:09;7.53;;;1.33;;
18804;SDS011;9530;48.930;9.526;2022-10-16T00:44:42;1.83;;;1.20;;
18804;SDS011;9530;48.930;9.526;2022-10-16T00:47:13;3.70;;;1.30;;
18804;SDS011;9530;48.930;9.526;2022-10-16T00:49:44;3.20;;;1.40;;
18804;SDS011;9530;48.930;9.526;2022-10-16T00:52:13;3.10;;;1.60;;
18804;SDS011;9530;48.930;9.526;2022-10-16T00:54:42;3.07;;;1.43;;
18804;SDS011;9530;48.930;9.526;2022-10-16T00:57:10;3.63;;;1.40;;
18804;SDS011;9530;48.930;9.526;2022-10-16T00:59:37;3.00;;;1.40;;
18804;SDS011;9530;48.930;9.526;2022-10-16T01:02:06;1.80;;;1.30;;
18804;SDS011;9530;48.930;9.526;2022-10-16T01:04:36;4.53;;;1.60;;
18804;SDS011;9530;48.930;9.526;2022-10-16T01:07:06;6.20;;;1.43;;
18804;SDS011;9530;48.930;9.526;2022-10-16T01:09:41;3.20;;;1.40;;
18804;SDS011;9530;48.930;9.526;2022-10-16T01:12:20;2.17;;;1.40;;
18804;SDS011;9530;48.930;9.526;2022-10-16T01:14:56;1.60;;;1.23;;
18804;SDS011;9530;48.930;9.526;2022-10-16T01:17:28;6.87;;;1.40;;
18804;SDS011;9530;48.930;9.526;2022-10-16T01:20:01;2.30;;;1.30;;
18804;SDS011;9530;48.930;9.526;2022-10-16T01:22:37;3.33;;;1.63;;
18804;SDS011;9530;48.930;9.526;2022-10-16T01:25:16;5.10;;;1.47;;
18804;SDS011;9530;48.930;9.526;2022-10-16T01:27:49;6.13;;;1.33;;
18804;SDS011;9530;48.930;9.526;2022-10-16T01:30:17;1.83;;;1.50;;
18804;SDS011;9530;48.930;9.526;2022-10-16T01:32:49;4.47;;;1.33;;
18804;SDS011;9530;48.930;9.526;2022-10-16T01:35:19;4.60;;;1.43;;
18804;SDS011;9530;48.930;9.526;2022-10-16T01:37:51;3.73;;;1.50;;
18804;SDS011;9530;48.930;9.526;2022-10-16T01:40:22;5.43;;;1.37;;
18804;SDS011;9530;48.930;9.526;2022-10-16T01:42:54;1.70;;;1.40;;
18804;SDS011;9530;48.930;9.526;2022-10-16T01:45:23;3.53;;;1.43;;
18804;SDS011;9530;48.930;9.526;2022-10-16T01:47:49;3.00;;;1.13;;
18804;SDS011;9530;48.930;9.526;2022-10-16T01:50:18;6.23;;;1.40;;
18804;SDS011;9530;48.930;9.526;2022-10-16T01:52:47;2.07;;;1.30;;
18804;SDS011;9530;48.930;9.526;2022-10-16T01:55:17;2.03;;;1.20;;
18804;SDS011;9530;48.930;9.526;2022-10-16T01:57:48;4.47;;;1.30;;
18804;SDS011;9530;48.930;9.526;2022-10-16T02:00:18;2.30;;;1.13;;
18804;SDS011;9530;48.930;9.526;2022-10-16T02:02:48;3.33;;;1.30;;
18804;SDS011;9530;48.930;9.526;2022-10-16T02:05:19;6.13;;;1.30;;
18804;SDS011;9530;48.930;9.526;2022-10-16T02:07:49;3.20;;;1.23;;
18804;SDS011;9530;48.930;9.526;2022-10-16T02:10:16;8.53;;;1.30;;
18804;SDS011;9530;48.930;9.526;2022-10-16T02:12:44;2.27;;;1.20;;
18804;SDS011;9530;48.930;9.526;2022-10-16T02:15:14;3.97;;;1.00;;
18804;SDS011;9530;48.930;9.526;2022-10-16T02:17:42;2.77;;;1.00;;
18804;SDS011;9530;48.930;9.526;2022-10-16T02:20:09;2.83;;;1.00;;
18804;SDS011;9530;48.930;9.526;2022-10-16T02:22:37;1.73;;;1.00;;
18804;SDS011;9530;48.930;9.526;2022-10-16T02:25:07;3.40;;;0.90;;
18804;SDS011;9530;48.930;9.526;2022-10-16T02:27:38;6.83;;;1.10;;
18804;SDS011;9530;48.930;9.526;2022-10-16T02:30:11;2.80;;;0.87;;
18804;SDS011;9530;48.930;9.526;2022-10-16T02:32:47;3.13;;;1.10;;
18804;SDS011;9530;48.930;9.526;2022-10-16T02:35:15;1.20;;;1.10;;
18804;SDS011;9530;48.930;9.526;2022-10-16T02:37:44;1.00;;;0.90;;
18804;SDS011;9530;48.930;9.526;2022-10-16T02:40:12;2.70;;;1.00;;
18804;SDS011;9530;48.930;9.526;2022-10-16T02:42:39;1.97;;;0.97;;
18804;SDS011;9530;48.930;9.526;2022-10-16T02:45:08;1.03;;;0.90;;
18804;SDS011;9530;48.930;9.526;2022-10-16T02:47:36;2.23;;;0.80;;
18804;SDS011;9530;48.930;9.526;2022-10-16T02:50:04;3.13;;;1.20;;
18804;SDS011;9530;48.930;9.526;2022-10-16T02:52:32;3.83;;;0.90;;
18804;SDS011;9530;48.930;9.526;2022-10-16T02:54:58;1.47;;;0.90;;
18804;SDS011;9530;48.930;9.526;2022-10-16T02:57:25;4.63;;;1.00;;
18804;SDS011;9530;48.930;9.526;2022-10-16T02:59:52;1.20;;;0.90;;
18804;SDS011;9530;48.930;9.526;2022-10-16T03:02:18;1.73;;;0.80;;
18804;SDS011;9530;48.930;9.526;2022-10-16T03:04:45;1.20;;;0.93;;
18804;SDS011;9530;48.930;9.526;2022-10-16T03:07:13;4.97;;;1.20;;
18804;SDS011;9530;48.930;9.526;2022-10-16T03:09:40;3.83;;;0.97;;
18804;SDS011;9530;48.930;9.526;2022-10-16T03:12:07;2.50;;;0.93;;
18804;SDS011;9530;48.930;9.526;2022-10-16T03:14:34;1.00;;;0.93;;
18804;SDS011;9530;48.930;9.526;2022-10-16T03:17:00;5.17;;;0.90;;
18804;SDS011;9530;48.930;9.526;2022-10-16T03:19:27;3.87;;;1.10;;
18804;SDS011;9530;48.930;9.526;2022-10-16T03:21:54;3.27;;;1.20;;
18804;SDS011;9530;48.930;9.526;2022-10-16T03:24:22;4.43;;;1.20;;
18804;SDS011;9530;48.930;9.526;2022-10-16T03:26:49;4.43;;;1.30;;
18804;SDS011;9530;48.930;9.526;2022-10-16T03:29:15;3.83;;;1.00;;
18804;SDS011;9530;48.930;9.526;2022-10-16T03:31:42;2.30;;;1.20;;
18804;SDS011;9530;48.930;9.526;2022-10-16T03:34:09;1.57;;;1.10;;
18804;SDS011;9530;48.930;9.526;2022-10-16T03:36:35;1.30;;;0.77;;
18804;SDS011;9530;48.930;9.526;2022-10-16T03:39:02;4.40;;;1.20;;
18804;SDS011;9530;48.930;9.526;2022-10-16T03:41:30;2.50;;;1.00;;
18804;SDS011;9530;48.930;9.526;2022-10-16T03:43:57;3.50;;;1.00;;
18804;SDS011;9530;48.930;9.526;2022-10-16T03:46:24;5.23;;;1.00;;
18804;SDS011;9530;48.930;9.526;2022-10-16T03:48:51;3.80;;;1.03;;
18804;SDS011;9530;48.930;9.526;2022-10-16T03:51:17;3.20;;;0.80;;
18804;SDS011;9530;48.930;9.526;2022-10-16T03:53:44;5.33;;;1.00;;
18804;SDS011;9530;48.930;9.526;2022-10-16T03:56:11;4.73;;;0.93;;
18804;SDS011;9530;48.930;9.526;2022-10-16T03:58:39;4.87;;;0.90;;
18804;SDS011;9530;48.930;9.526;2022-10-16T04:01:05;2.70;;;1.00;;
18804;SDS011;9530;48.930;9.526;2022-10-16T04:03:32;6.03;;;0.97;;
18804;SDS011;9530;48.930;9.526;2022-10-16T04:05:59;5.60;;;1.10;;
18804;SDS011;9530;48.930;9.526;2022-10-16T04:08:26;6.40;;;1.10;;
18804;SDS011;9530;48.930;9.526;2022-10-16T04:10:52;4.27;;;0.90;;
18804;SDS011;9530;48.930;9.526;2022-10-16T04:13:19;3.20;;;1.07;;
18804;SDS011;9530;48.930;9.526;2022-10-16T04:15:47;3.73;;;1.00;;
18804;SDS011;9530;48.930;9.526;2022-10-16T04:18:14;5.67;;;0.90;;
18804;SDS011;9530;48.930;9.526;2022-10-16T04:20:40;2.63;;;0.90;;
18804;SDS011;9530;48.930;9.526;2022-10-16T04:23:07;3.27;;;1.00;;
18804;SDS011;9530;48.930;9.526;2022-10-16T04:25:34;1.93;;;1.00;;
18804;SDS011;9530;48.930;9.526;2022-10-16T04:28:01;1.70;;;1.00;;
18804;SDS011;9530;48.930;9.526;2022-10-16T04:30:27;2.10;;;1.07;;
18804;SDS011;9530;48.930;9.526;2022-10-16T04:32:55;7.70;;;1.20;;
18804;SDS011;9530;48.930;9.526;2022-10-16T04:35:22;5.13;;;1.00;;
18804;SDS011;9530;48.930;9.526;2022-10-16T04:37:49;6.07;;;1.20;;
18804;SDS011;9530;48.930;9.526;2022-10-16T04:40:16;2.93;;;0.93;;
18804;SDS011;9530;48.930;9.526;2022-10-16T04:42:43;1.43;;;1.00;;
18804;SDS011;9530;48.930;9.526;2022-10-16T04:45:09;3.57;;;0.80;;
18804;SDS011;9530;48.930;9.526;2022-10-16T04:47:36;4.70;;;1.00;;
18804;SDS011;9530;48.930;9.526;2022-10-16T04:50:05;5.77;;;1.00;;
18804;SDS011;9530;48.930;9.526;2022-10-16T04:52:32;5.73;;;1.20;;
18804;SDS011;9530;48.930;9.526;2022-10-16T04:54:58;1.60;;;1.03;;
18804;SDS011;9530;48.930;9.526;2022-10-16T04:57:27;8.03;;;3.30;;
18804;SDS011;9530;48.930;9.526;2022-10-16T04:59:54;5.03;;;2.90;;
18804;SDS011;9530;48.930;9.526;2022-10-16T05:02:21;3.73;;;2.07;;
18804;SDS011;9530;48.930;9.526;2022-10-16T05:04:48;4.10;;;1.47;;
18804;SDS011;9530;48.930;9.526;2022-10-16T05:07:16;4.83;;;1.07;;
18804;SDS011;9530;48.930;9.526;2022-10-16T05:09:43;4.30;;;1.33;;
18804;SDS011;9530;48.930;9.526;2022-10-16T05:12:10;3.67;;;1.60;;
18804;SDS011;9530;48.930;9.526;2022-10-16T05:14:36;3.57;;;1.40;;
18804;SDS011;9530;48.930;9.526;2022-10-16T05:17:03;4.47;;;1.60;;
18804;SDS011;9530;48.930;9.526;2022-10-16T05:19:30;3.30;;;1.47;;
18804;SDS011;9530;48.930;9.526;2022-10-16T05:21:56;3.70;;;1.30;;
18804;SDS011;9530;48.930;9.526;2022-10-16T05:24:25;7.23;;;1.53;;
18804;SDS011;9530;48.930;9.526;2022-10-16T05:26:52;5.90;;;1.60;;
18804;SDS011;9530;48.930;9.526;2022-10-16T05:29:19;2.53;;;1.47;;
18804;SDS011;9530;48.930;9.526;2022-10-16T05:31:45;5.90;;;1.30;;
18804;SDS011;9530;48.930;9.526;2022-10-16T05:34:12;1.73;;;1.23;;
18804;SDS011;9530;48.930;9.526;2022-10-16T05:36:39;3.20;;;1.20;;
18804;SDS011;9530;48.930;9.526;2022-10-16T05:39:05;2.27;;;1.13;;
18804;SDS011;9530;48.930;9.526;2022-10-16T05:41:34;2.10;;;1.20;;
18804;SDS011;9530;48.930;9.526;2022-10-16T05:44:03;1.97;;;1.10;;
18804;SDS011;9530;48.930;9.526;2022-10-16T05:46:31;1.30;;;1.07;;
18804;SDS011;9530;48.930;9.526;2022-10-16T05:48:58;4.60;;;1.47;;
18804;SDS011;9530;48.930;9.526;2022-10-16T05:51:25;5.50;;;1.90;;
18804;SDS011;9530;48.930;9.526;2022-10-16T05:53:51;5.60;;;1.70;;
18804;SDS011;9530;48.930;9.526;2022-10-16T05:56:18;6.33;;;1.53;;
18804;SDS011;9530;48.930;9.526;2022-10-16T05:58:46;4.50;;;1.27;;
18804;SDS011;9530;48.930;9.526;2022-10-16T06:01:14;3.70;;;1.70;;
18804;SDS011;9530;48.930;9.526;2022-10-16T06:03:43;3.73;;;1.83;;
18804;SDS011;9530;48.930;9.526;2022-10-16T06:06:10;2.63;;;2.20;;
18804;SDS011;9530;48.930;9.526;2022-10-16T06:08:38;3.63;;;1.40;;
18804;SDS011;9530;48.930;9.526;2022-10-16T06:11:06;4.23;;;2.40;;
18804;SDS011;9530;48.930;9.526;2022-10-16T06:13:33;8.30;;;2.20;;
18804;SDS011;9530;48.930;9.526;2022-10-16T06:16:02;5.57;;;1.80;;
18804;SDS011;9530;48.930;9.526;2022-10-16T06:18:29;5.40;;;1.67;;
18804;SDS011;9530;48.930;9.526;2022-10-16T06:20:57;2.23;;;1.40;;
18804;SDS011;9530;48.930;9.526;2022-10-16T06:23:24;2.80;;;1.53;;
18804;SDS011;9530;48.930;9.526;2022-10-16T06:25:51;3.37;;;1.50;;
18804;SDS011;9530;48.930;9.526;2022-10-16T06:28:18;5.83;;;1.77;;
18804;SDS011;9530;48.930;9.526;2022-10-16T06:30:44;3.57;;;1.90;;
18804;SDS011;9530;48.930;9.526;2022-10-16T06:33:12;3.33;;;1.90;;
18804;SDS011;9530;48.930;9.526;2022-10-16T06:35:39;3.13;;;2.00;;
18804;SDS011;9530;48.930;9.526;2022-10-16T06:38:06;4.37;;;2.03;;
18804;SDS011;9530;48.930;9.526;2022-10-16T06:40:33;5.87;;;2.70;;
18804;SDS011;9530;48.930;9.526;2022-10-16T06:43:00;3.97;;;2.40;;
18804;SDS011;9530;48.930;9.526;2022-10-16T06:45:26;2.83;;;2.30;;
18804;SDS011;9530;48.930;9.526;2022-10-16T06:47:53;3.57;;;2.30;;
18804;SDS011;9530;48.930;9.526;2022-10-16T06:50:21;5.23;;;2.93;;
18804;SDS011;9530;48.930;9.526;2022-10-16T06:52:48;4.00;;;2.70;;
18804;SDS011;9530;48.930;9.526;2022-10-16T06:55:15;6.10;;;2.67;;
18804;SDS011;9530;48.930;9.526;2022-10-16T06:57:42;6.33;;;2.67;;
18804;SDS011;9530;48.930;9.526;2022-10-16T07:00:09;7.10;;;2.87;;
18804;SDS011;9530;48.930;9.526;2022-10-16T07:02:36;9.57;;;2.87;;
18804;SDS011;9530;48.930;9.526;2022-10-16T07:05:03;4.80;;;2.63;;
18804;SDS011;9530;48.930;9.526;2022-10-16T07:07:31;5.77;;;2.87;;
18804;SDS011;9530;48.930;9.526;2022-10-16T07:09:58;5.57;;;2.67;;
18804;SDS011;9530;48.930;9.526;2022-10-16T07:12:24;5.43;;;2.63;;
18804;SDS011;9530;48.930;9.526;2022-10-16T07:14:51;4.37;;;2.27;;
18804;SDS011;9530;48.930;9.526;2022-10-16T07:17:19;6.67;;;2.50;;
18804;SDS011;9530;48.930;9.526;2022-10-16T07:19:47;6.33;;;2.30;;
18804;SDS011;9530;48.930;9.526;2022-10-16T07:22:14;4.37;;;2.37;;
18804;SDS011;9530;48.930;9.526;2022-10-16T07:24:42;3.30;;;2.43;;
18804;SDS011;9530;48.930;9.526;2022-10-16T07:27:09;7.97;;;2.70;;
18804;SDS011;9530;48.930;9.526;2022-10-16T07:29:36;3.20;;;2.07;;
18804;SDS011;9530;48.930;9.526;2022-10-16T07:32:02;27.73;;;15.43;;
18804;SDS011;9530;48.930;9.526;2022-10-16T07:34:29;24.87;;;12.47;;
18804;SDS011;9530;48.930;9.526;2022-10-16T07:36:56;18.83;;;12.27;;
18804;SDS011;9530;48.930;9.526;2022-10-16T07:39:23;14.97;;;8.10;;
18804;SDS011;9530;48.930;9.526;2022-10-16T07:41:51;14.67;;;8.23;;
18804;SDS011;9530;48.930;9.526;2022-10-16T07:44:17;12.70;;;8.30;;
18804;SDS011;9530;48.930;9.526;2022-10-16T07:46:44;14.33;;;7.27;;
18804;SDS011;9530;48.930;9.526;2022-10-16T07:49:11;8.53;;;5.43;;
18804;SDS011;9530;48.930;9.526;2022-10-16T07:51:37;5.33;;;3.13;;
18804;SDS011;9530;48.930;9.526;2022-10-16T07:54:04;4.53;;;3.20;;
18804;SDS011;9530;48.930;9.526;2022-10-16T07:56:31;4.93;;;2.80;;
18804;SDS011;9530;48.930;9.526;2022-10-16T07:58:59;5.10;;;2.60;;
18804;SDS011;9530;48.930;9.526;2022-10-16T08:01:26;6.33;;;2.30;;
18804;SDS011;9530;48.930;9.526;2022-10-16T08:03:53;7.03;;;2.30;;
18804;SDS011;9530;48.930;9.526;2022-10-16T08:06:20;6.53;;;2.20;;
18804;SDS011;9530;48.930;9.526;2022-10-16T08:08:48;9.00;;;2.67;;
18804;SDS011;9530;48.930;9.526;2022-10-16T08:11:15;6.13;;;3.00;;
18804;SDS011;9530;48.930;9.526;2022-10-16T08:13:42;5.03;;;2.83;;
18804;SDS011;9530;48.930;9.526;2022-10-16T08:16:10;8.20;;;3.27;;
18804;SDS011;9530;48.930;9.526;2022-10-16T08:18:38;7.37;;;3.03;;
18804;SDS011;9530;48.930;9.526;2022-10-16T08:21:06;5.37;;;2.70;;
18804;SDS011;9530;48.930;9.526;2022-10-16T08:23:33;10.83;;;3.80;;
18804;SDS011;9530;48.930;9.526;2022-10-16T08:26:04;14.17;;;7.77;;
18804;SDS011;9530;48.930;9.526;2022-10-16T08:28:31;12.63;;;6.90;;
18804;SDS011;9530;48.930;9.526;2022-10-16T08:31:04;8.80;;;5.20;;
18804;SDS011;9530;48.930;9.526;2022-10-16T08:33:33;9.47;;;4.83;;
18804;SDS011;9530;48.930;9.526;2022-10-16T08:36:01;12.93;;;6.27;;
18804;SDS011;9530;48.930;9.526;2022-10-16T08:38:27;9.23;;;4.23;;
18804;SDS011;9530;48.930;9.526;2022-10-16T08:40:54;7.10;;;3.63;;
18804;SDS011;9530;48.930;9.526;2022-10-16T08:43:31;5.47;;;3.40;;
18804;SDS011;9530;48.930;9.526;2022-10-16T08:46:19;6.47;;;2.60;;
18804;SDS011;9530;48.930;9.526;2022-10-16T08:48:58;9.03;;;2.37;;
18804;SDS011;9530;48.930;9.526;2022-10-16T08:51:26;2.73;;;2.13;;
18804;SDS011;9530;48.930;9.526;2022-10-16T08:53:55;8.57;;;2.90;;
18804;SDS011;9530;48.930;9.526;2022-10-16T08:56:23;1.90;;;1.30;;
18804;SDS011;9530;48.930;9.526;2022-10-16T08:58:52;3.47;;;1.30;;
18804;SDS011;9530;48.930;9.526;2022-10-16T09:01:20;2.93;;;1.20;;
18804;SDS011;9530;48.930;9.526;2022-10-16T09:04:00;3.47;;;0.90;;
18804;SDS011;9530;48.930;9.526;2022-10-16T09:06:51;4.60;;;1.20;;
18804;SDS011;9530;48.930;9.526;2022-10-16T09:12:11;1.60;;;1.17;;
18804;SDS011;9530;48.930;9.526;2022-10-16T09:14:49;1.30;;;0.83;;
18804;SDS011;9530;48.930;9.526;2022-10-16T09:17:24;2.17;;;1.27;;
18804;SDS011;9530;48.930;9.526;2022-10-16T09:20:08;1.93;;;1.10;;
18804;SDS011;9530;48.930;9.526;2022-10-16T09:22:53;3.93;;;1.10;;
18804;SDS011;9530;48.930;9.526;2022-10-16T09:25:26;1.80;;;1.00;;
18804;SDS011;9530;48.930;9.526;2022-10-16T09:27:53;1.70;;;1.00;;
18804;SDS011;9530;48.930;9.526;2022-10-16T09:30:21;1.53;;;1.20;;
18804;SDS011;9530;48.930;9.526;2022-10-16T09:32:51;6.13;;;1.20;;
18804;SDS011;9530;48.930;9.526;2022-10-16T09:35:21;3.43;;;1.50;;
18804;SDS011;9530;48.930;9.526;2022-10-16T09:37:53;1.63;;;1.10;;
18804;SDS011;9530;48.930;9.526;2022-10-16T09:40:25;3.27;;;1.13;;
18804;SDS011;9530;48.930;9.526;2022-10-16T09:43:02;3.13;;;1.00;;
18804;SDS011;9530;48.930;9.526;2022-10-16T09:45:38;2.23;;;1.17;;
18804;SDS011;9530;48.930;9.526;2022-10-16T09:48:09;5.50;;;1.10;;
18804;SDS011;9530;48.930;9.526;2022-10-16T09:50:39;2.50;;;1.30;;
18804;SDS011;9530;48.930;9.526;2022-10-16T09:53:10;6.63;;;1.23;;
18804;SDS011;9530;48.930;9.526;2022-10-16T09:55:47;2.20;;;1.30;;
18804;SDS011;9530;48.930;9.526;2022-10-16T09:58:15;4.20;;;1.20;;
18804;SDS011;9530;48.930;9.526;2022-10-16T10:00:42;2.20;;;1.00;;
18804;SDS011;9530;48.930;9.526;2022-10-16T10:03:19;3.07;;;1.20;;
18804;SDS011;9530;48.930;9.526;2022-10-16T10:06:06;3.10;;;1.00;;
18804;SDS011;9530;48.930;9.526;2022-10-16T10:08:51;1.30;;;1.13;;
18804;SDS011;9530;48.930;9.526;2022-10-16T10:11:39;3.77;;;1.10;;
18804;SDS011;9530;48.930;9.526;2022-10-16T10:14:15;1.77;;;1.10;;
18804;SDS011;9530;48.930;9.526;2022-10-16T10:16:49;3.37;;;1.27;;
18804;SDS011;9530;48.930;9.526;2022-10-16T10:19:17;1.20;;;0.97;;
18804;SDS011;9530;48.930;9.526;2022-10-16T10:21:47;4.30;;;1.33;;
18804;SDS011;9530;48.930;9.526;2022-10-16T10:24:15;4.03;;;1.40;;
18804;SDS011;9530;48.930;9.526;2022-10-16T10:26:45;5.20;;;1.00;;
18804;SDS011;9530;48.930;9.526;2022-10-16T10:29:23;4.97;;;1.00;;
18804;SDS011;9530;48.930;9.526;2022-10-16T10:31:59;3.77;;;1.30;;
18804;SDS011;9530;48.930;9.526;2022-10-16T10:34:39;2.17;;;1.10;;
18804;SDS011;9530;48.930;9.526;2022-10-16T10:37:23;1.27;;;1.07;;
18804;SDS011;9530;48.930;9.526;2022-10-16T10:40:02;2.03;;;1.17;;
18804;SDS011;9530;48.930;9.526;2022-10-16T10:42:39;2.47;;;1.00;;
18804;SDS011;9530;48.930;9.526;2022-10-16T10:45:16;4.03;;;1.10;;
18804;SDS011;9530;48.930;9.526;2022-10-16T10:47:52;2.17;;;1.10;;
18804;SDS011;9530;48.930;9.526;2022-10-16T10:50:30;3.10;;;1.23;;
18804;SDS011;9530;48.930;9.526;2022-10-16T10:53:06;1.40;;;1.13;;
18804;SDS011;9530;48.930;9.526;2022-10-16T10:55:44;4.83;;;1.20;;
18804;SDS011;9530;48.930;9.526;2022-10-16T10:58:25;7.20;;;1.30;;
18804;SDS011;9530;48.930;9.526;2022-10-16T11:01:11;1.50;;;1.10;;
18804;SDS011;9530;48.930;9.526;2022-10-16T11:03:46;3.33;;;1.10;;
18804;SDS011;9530;48.930;9.526;2022-10-16T11:06:26;3.53;;;1.00;;
18804;SDS011;9530;48.930;9.526;2022-10-16T11:08:58;3.37;;;0.83;;
18804;SDS011;9530;48.930;9.526;2022-10-16T11:11:29;5.73;;;1.00;;
18804;SDS011;9530;48.930;9.526;2022-10-16T11:14:00;1.60;;;1.10;;
18804;SDS011;9530;48.930;9.526;2022-10-16T11:16:33;2.07;;;1.07;;
18804;SDS011;9530;48.930;9.526;2022-10-16T11:19:04;2.53;;;1.07;;
18804;SDS011;9530;48.930;9.526;2022-10-16T11:21:39;1.23;;;0.90;;
18804;SDS011;9530;48.930;9.526;2022-10-16T11:24:16;2.27;;;1.27;;
18804;SDS011;9530;48.930;9.526;2022-10-16T11:26:48;2.10;;;1.13;;
18804;SDS011;9530;48.930;9.526;2022-10-16T11:29:17;3.33;;;1.40;;
18804;SDS011;9530;48.930;9.526;2022-10-16T11:31:50;4.93;;;1.10;;
18804;SDS011;9530;48.930;9.526;2022-10-16T11:34:22;2.57;;;1.03;;
18804;SDS011;9530;48.930;9.526;2022-10-16T11:36:53;4.07;;;1.40;;
18804;SDS011;9530;48.930;9.526;2022-10-16T11:39:25;2.00;;;1.37;;
18804;SDS011;9530;48.930;9.526;2022-10-16T11:41:55;2.90;;;1.10;;
18804;SDS011;9530;48.930;9.526;2022-10-16T11:44:33;1.63;;;1.07;;
18804;SDS011;9530;48.930;9.526;2022-10-16T11:47:09;3.17;;;1.10;;
18804;SDS011;9530;48.930;9.526;2022-10-16T11:49:45;2.40;;;1.03;;
18804;SDS011;9530;48.930;9.526;2022-10-16T11:52:16;3.47;;;1.30;;
18804;SDS011;9530;48.930;9.526;2022-10-16T11:54:49;4.80;;;1.50;;
18804;SDS011;9530;48.930;9.526;2022-10-16T11:57:20;4.13;;;1.20;;
18804;SDS011;9530;48.930;9.526;2022-10-16T11:59:50;2.00;;;1.30;;
18804;SDS011;9530;48.930;9.526;2022-10-16T12:02:32;1.93;;;1.20;;
18804;SDS011;9530;48.930;9.526;2022-10-16T12:05:11;3.80;;;1.23;;
18804;SDS011;9530;48.930;9.526;2022-10-16T12:07:46;3.83;;;0.90;;
18804;SDS011;9530;48.930;9.526;2022-10-16T12:10:23;3.13;;;1.27;;
18804;SDS011;9530;48.930;9.526;2022-10-16T12:12:52;1.87;;;1.20;;
18804;SDS011;9530;48.930;9.526;2022-10-16T12:15:22;3.73;;;1.10;;
18804;SDS011;9530;48.930;9.526;2022-10-16T12:17:51;3.03;;;1.30;;
18804;SDS011;9530;48.930;9.526;2022-10-16T12:20:20;2.30;;;1.30;;
18804;SDS011;9530;48.930;9.526;2022-10-16T12:22:52;2.80;;;1.13;;
18804;SDS011;9530;48.930;9.526;2022-10-16T12:25:23;2.27;;;1.20;;
18804;SDS011;9530;48.930;9.526;2022-10-16T12:27:53;1.70;;;1.10;;
18804;SDS011;9530;48.930;9.526;2022-10-16T12:30:23;2.70;;;1.27;;
18804;SDS011;9530;48.930;9.526;2022-10-16T12:32:54;3.20;;;1.20;;
18804;SDS011;9530;48.930;9.526;2022-10-16T12:35:23;5.03;;;1.20;;
18804;SDS011;9530;48.930;9.526;2022-10-16T12:37:52;3.00;;;1.10;;
18804;SDS011;9530;48.930;9.526;2022-10-16T12:40:27;1.20;;;1.10;;
18804;SDS011;9530;48.930;9.526;2022-10-16T12:42:57;1.60;;;1.23;;
18804;SDS011;9530;48.930;9.526;2022-10-16T12:45:25;1.53;;;1.10;;
18804;SDS011;9530;48.930;9.526;2022-10-16T12:47:54;2.27;;;1.20;;
18804;SDS011;9530;48.930;9.526;2022-10-16T12:50:23;1.97;;;1.10;;
18804;SDS011;9530;48.930;9.526;2022-10-16T12:52:56;1.20;;;0.90;;
18804;SDS011;9530;48.930;9.526;2022-10-16T12:55:23;2.07;;;1.00;;
18804;SDS011;9530;48.930;9.526;2022-10-16T12:58:00;5.10;;;1.30;;
18804;SDS011;9530;48.930;9.526;2022-10-16T13:00:39;3.57;;;1.00;;
18804;SDS011;9530;48.930;9.526;2022-10-16T13:06:25;1.93;;;1.03;;
18804;SDS011;9530;48.930;9.526;2022-10-16T13:09:05;1.60;;;1.00;;
18804;SDS011;9530;48.930;9.526;2022-10-16T13:11:49;2.10;;;1.20;;
18804;SDS011;9530;48.930;9.526;2022-10-16T13:14:31;1.10;;;0.90;;
18804;SDS011;9530;48.930;9.526;2022-10-16T13:17:11;3.37;;;1.20;;
18804;SDS011;9530;48.930;9.526;2022-10-16T13:19:45;3.13;;;1.10;;
18804;SDS011;9530;48.930;9.526;2022-10-16T13:22:18;2.23;;;1.03;;
18804;SDS011;9530;48.930;9.526;2022-10-16T13:24:55;4.20;;;1.27;;
18804;SDS011;9530;48.930;9.526;2022-10-16T13:27:33;2.30;;;1.20;;
18804;SDS011;9530;48.930;9.526;2022-10-16T13:30:13;1.03;;;0.90;;
18804;SDS011;9530;48.930;9.526;2022-10-16T13:32:44;3.33;;;1.00;;
18804;SDS011;9530;48.930;9.526;2022-10-16T13:35:20;0.80;;;0.80;;
18804;SDS011;9530;48.930;9.526;2022-10-16T13:37:48;3.90;;;1.10;;
18804;SDS011;9530;48.930;9.526;2022-10-16T13:40:19;1.70;;;1.00;;
18804;SDS011;9530;48.930;9.526;2022-10-16T13:42:47;2.90;;;1.20;;
18804;SDS011;9530;48.930;9.526;2022-10-16T13:45:19;1.77;;;1.10;;
18804;SDS011;9530;48.930;9.526;2022-10-16T13:47:46;2.37;;;1.00;;
18804;SDS011;9530;48.930;9.526;2022-10-16T13:50:14;2.70;;;0.80;;
18804;SDS011;9530;48.930;9.526;2022-10-16T13:52:42;2.47;;;1.00;;
18804;SDS011;9530;48.930;9.526;2022-10-16T13:55:10;4.50;;;1.20;;
18804;SDS011;9530;48.930;9.526;2022-10-16T13:57:38;5.27;;;1.20;;
18804;SDS011;9530;48.930;9.526;2022-10-16T14:00:16;3.20;;;1.03;;
18804;SDS011;9530;48.930;9.526;2022-10-16T14:02:49;2.07;;;1.13;;
18804;SDS011;9530;48.930;9.526;2022-10-16T14:05:19;6.00;;;1.07;;
18804;SDS011;9530;48.930;9.526;2022-10-16T14:07:47;3.60;;;1.10;;
18804;SDS011;9530;48.930;9.526;2022-10-16T14:10:20;3.30;;;1.30;;
18804;SDS011;9530;48.930;9.526;2022-10-16T14:12:54;3.20;;;1.20;;
18804;SDS011;9530;48.930;9.526;2022-10-16T14:15:23;4.20;;;1.10;;
18804;SDS011;9530;48.930;9.526;2022-10-16T14:17:51;3.97;;;1.27;;
18804;SDS011;9530;48.930;9.526;2022-10-16T14:20:20;2.83;;;1.10;;
18804;SDS011;9530;48.930;9.526;2022-10-16T14:22:57;2.03;;;1.13;;
18804;SDS011;9530;48.930;9.526;2022-10-16T14:25:26;6.13;;;1.20;;
18804;SDS011;9530;48.930;9.526;2022-10-16T14:27:58;1.43;;;1.13;;
18804;SDS011;9530;48.930;9.526;2022-10-16T14:30:28;7.77;;;1.40;;
18804;SDS011;9530;48.930;9.526;2022-10-16T14:32:57;9.33;;;1.37;;
18804;SDS011;9530;48.930;9.526;2022-10-16T14:35:25;6.83;;;1.40;;
18804;SDS011;9530;48.930;9.526;2022-10-16T14:37:54;3.00;;;1.07;;
18804;SDS011;9530;48.930;9.526;2022-10-16T14:40:23;4.00;;;1.03;;
18804;SDS011;9530;48.930;9.526;2022-10-16T14:42:51;4.60;;;1.20;;
18804;SDS011;9530;48.930;9.526;2022-10-16T14:45:18;6.93;;;1.40;;
18804;SDS011;9530;48.930;9.526;2022-10-16T14:47:49;8.93;;;1.63;;
18804;SDS011;9530;48.930;9.526;2022-10-16T14:50:18;4.47;;;1.03;;
18804;SDS011;9530;48.930;9.526;2022-10-16T14:52:45;8.13;;;1.43;;
18804;SDS011;9530;48.930;9.526;2022-10-16T14:55:12;9.37;;;1.20;;
18804;SDS011;9530;48.930;9.526;2022-10-16T14:57:38;7.30;;;1.53;;
18804;SDS011;9530;48.930;9.526;2022-10-16T15:00:08;11.43;;;1.50;;
18804;SDS011;9530;48.930;9.526;2022-10-16T15:02:40;7.63;;;1.83;;
18804;SDS011;9530;48.930;9.526;2022-10-16T15:05:12;13.83;;;1.63;;
18804;SDS011;9530;48.930;9.526;2022-10-16T15:07:41;7.93;;;1.73;;
18804;SDS011;9530;48.930;9.526;2022-10-16T15:10:08;3.50;;;1.50;;
18804;SDS011;9530;48.930;9.526;2022-10-16T15:12:35;5.80;;;1.40;;
18804;SDS011;9530;48.930;9.526;2022-10-16T15:15:05;5.00;;;1.40;;
18804;SDS011;9530;48.930;9.526;2022-10-16T15:17:49;4.90;;;1.17;;
18804;SDS011;9530;48.930;9.526;2022-10-16T15:20:19;3.83;;;1.33;;
18804;SDS011;9530;48.930;9.526;2022-10-16T15:22:46;5.87;;;1.63;;